Time;durP1;ratioP1;P1;durP2;ratioP2;P2;SDS_P1;SDS_P2;PMS_P1;PMS_P2;Temp;Humidity;BMP_temperature;BMP_pressure;BME280_temperature;BME280_humidity;BME280_pressure;Samples;Min_cycle;Max_cycle;Signal;HPM_P1;HPM_P2
2022/11/18 00:01:47;;;;;;;9.55;6.72;;;;;;;0.72;64.99;99423.86;1759359;81;21254;-73
2022/11/18 00:04:15;;;;;;;10.53;7.05;;;;;;;0.71;64.88;99425.69;1740170;79;20955;-73
2022/11/18 00:06:43;;;;;;;9.28;6.70;;;;;;;0.68;64.57;99424.30;1750679;82;21060;-73
2022/11/18 00:09:10;;;;;;;9.78;6.67;;;;;;;0.65;64.35;99424.73;1726414;82;21086;-72
2022/11/18 00:14:26;;;;;;;9.23;6.40;;;;;;;0.63;64.32;99430.73;1766428;81;21236;-73
2022/11/18 00:17:02;;;;;;;9.98;7.05;;;;;;;0.64;64.19;99438.11;1767668;79;21518;-73
2022/11/18 00:19:32;;;;;;;9.15;7.00;;;;;;;0.64;64.18;99435.48;1757498;80;21065;-74
2022/11/18 00:22:00;;;;;;;10.48;7.10;;;;;;;0.66;64.18;99441.33;1766449;78;21671;-74
2022/11/18 00:24:26;;;;;;;10.63;7.08;;;;;;;0.65;64.19;99444.44;1788203;80;21059;-74
2022/11/18 00:26:54;;;;;;;10.88;6.62;;;;;;;0.65;64.20;99443.13;1788734;80;21085;-73
2022/11/18 00:29:20;;;;;;;9.53;7.00;;;;;;;0.67;64.24;99444.24;1788487;80;21051;-74
2022/11/18 00:31:47;;;;;;;11.12;7.00;;;;;;;0.65;63.96;99447.07;1788171;80;20956;-74
2022/11/18 00:34:16;;;;;;;9.40;6.78;;;;;;;0.62;63.78;99444.08;1768094;80;21553;-74
2022/11/18 00:36:43;;;;;;;12.43;7.33;;;;;;;0.60;63.74;99444.31;1757676;81;21477;-74
2022/11/18 00:39:12;;;;;;;10.93;7.00;;;;;;;0.64;63.81;99451.25;1761547;80;21247;-74
2022/11/18 00:44:23;;;;;;;10.20;7.25;;;;;;;0.69;63.65;99443.01;1788867;79;20956;-73
2022/11/18 00:46:50;;;;;;;11.33;7.70;;;;;;;0.70;63.71;99438.03;1788728;80;21077;-74
2022/11/18 00:49:17;;;;;;;10.98;7.00;;;;;;;0.74;63.82;99437.59;1788105;79;21030;-75
2022/11/18 00:51:43;;;;;;;12.13;7.62;;;;;;;0.76;63.83;99434.22;1753426;80;21162;-74
2022/11/18 00:54:11;;;;;;;10.13;7.40;;;;;;;0.75;63.75;99428.68;1750145;80;21044;-75
2022/11/18 00:56:37;;;;;;;10.25;7.20;;;;;;;0.75;63.70;99432.62;1737178;82;21003;-75
2022/11/18 00:59:04;;;;;;;12.47;7.78;;;;;;;0.73;63.65;99433.38;1749066;82;21533;-74
2022/11/18 01:01:31;;;;;;;10.85;7.53;;;;;;;0.76;63.76;99435.53;1751526;82;21286;-73
2022/11/18 01:03:57;;;;;;;12.37;7.35;;;;;;;0.78;63.78;99435.61;1751561;82;21155;-74
2022/11/18 01:06:24;;;;;;;9.68;7.22;;;;;;;0.77;63.56;99435.84;1750905;82;21625;-74
2022/11/18 01:08:50;;;;;;;13.20;7.85;;;;;;;0.77;63.42;99436.64;1723915;82;20971;-73
2022/11/18 01:14:02;;;;;;;10.78;7.67;;;;;;;0.67;62.98;99438.47;1721828;83;20964;-73
2022/11/18 01:16:29;;;;;;;12.98;8.10;;;;;;;0.63;62.71;99430.73;1740790;82;22188;-73
2022/11/18 01:18:56;;;;;;;12.03;7.30;;;;;;;0.62;62.77;99434.88;1751486;82;21588;-75
2022/11/18 01:21:23;;;;;;;14.05;8.70;;;;;;;0.61;62.73;99436.72;1744262;82;21102;-74
2022/11/18 01:23:50;;;;;;;12.15;7.75;;;;;;;0.59;62.73;99438.78;1724721;82;21055;-74
2022/11/18 01:26:16;;;;;;;11.15;7.78;;;;;;;0.55;62.63;99434.16;1751039;81;21067;-74
2022/11/18 01:28:44;;;;;;;11.75;7.37;;;;;;;0.55;62.57;99435.47;1751444;82;21771;-74
2022/11/18 01:31:14;;;;;;;10.53;8.05;;;;;;;0.58;62.65;99444.23;1751639;82;21554;-75
2022/11/18 01:33:42;;;;;;;10.78;7.92;;;;;;;0.58;62.55;99439.78;1750610;82;21004;-74
2022/11/18 01:36:21;;;;;;;10.82;8.00;;;;;;;0.60;62.62;99439.06;1751625;82;21047;-75
2022/11/18 01:38:48;;;;;;;11.33;8.05;;;;;;;0.65;62.62;99448.38;1750360;82;21059;-74
2022/11/18 01:41:15;;;;;;;10.60;7.78;;;;;;;0.67;62.44;99441.09;1743917;82;21208;-74
2022/11/18 01:44:02;;;;;;;12.50;8.35;;;;;;;0.68;62.33;99444.52;1742764;82;20965;-72
2022/11/18 01:46:32;;;;;;;11.88;8.05;;;;;;;0.64;62.24;99445.47;1751589;81;21091;-73
2022/11/18 01:49:08;;;;;;;13.80;8.55;;;;;;;0.59;62.24;99442.72;1751519;82;21083;-75
2022/11/18 01:51:48;;;;;;;10.58;7.70;;;;;;;0.57;62.15;99442.64;1751305;82;21055;-74
2022/11/18 01:54:23;;;;;;;11.43;8.43;;;;;;;0.60;62.18;99445.63;1743212;82;21126;-72
2022/11/18 01:56:53;;;;;;;13.62;8.83;;;;;;;0.56;61.81;99447.09;1742876;82;21135;-73
2022/11/18 02:12:15;;;;;;;11.87;9.00;;;;;;;1.02;61.25;99455.45;1827447;77;22777;-73
2022/11/18 02:14:44;;;;;;;11.97;8.18;;;;;;;0.94;61.10;99457.36;1752218;82;21533;-73
2022/11/18 02:17:22;;;;;;;11.57;8.13;;;;;;;0.94;60.89;99461.81;1742673;82;21066;-73
2022/11/18 02:20:09;;;;;;;12.58;8.88;;;;;;;0.92;60.83;99470.42;1742860;82;20896;-74
2022/11/18 02:23:00;;;;;;;11.63;8.38;;;;;;;0.89;60.31;99466.95;1751793;82;20920;-73
2022/11/18 02:25:35;;;;;;;11.70;7.45;;;;;;;0.81;60.35;99466.71;1669765;81;21039;-74
2022/11/18 02:28:55;;;;;;;10.60;7.37;;;;;;;0.79;60.12;99469.27;1742565;82;20963;-74
2022/11/18 02:31:59;;;;;;;13.13;8.15;;;;;;;0.77;59.98;99472.64;1751565;82;21286;-74
2022/11/18 02:35:04;;;;;;;12.33;8.58;;;;;;;0.73;59.82;99470.17;1743427;82;21447;-75
2022/11/18 02:37:46;;;;;;;12.28;8.60;;;;;;;0.65;59.75;99475.98;1721051;83;20987;-73
2022/11/18 02:40:19;;;;;;;11.53;8.38;;;;;;;0.57;59.77;99483.36;1713214;83;21066;-74
2022/11/18 02:42:51;;;;;;;11.22;7.92;;;;;;;0.58;59.66;99481.82;1721768;83;20957;-74
2022/11/18 02:45:19;;;;;;;12.63;8.20;;;;;;;0.62;59.61;99479.04;1734056;82;21087;-74
2022/11/18 02:47:47;;;;;;;12.65;8.78;;;;;;;0.61;59.68;99480.07;1688471;82;21066;-75
2022/11/18 02:50:22;;;;;;;12.33;8.10;;;;;;;0.59;59.64;99482.13;1751686;81;21478;-75
2022/11/18 02:52:54;;;;;;;13.30;8.80;;;;;;;0.49;59.43;99484.43;1742606;82;20999;-74
2022/11/18 02:55:21;;;;;;;11.35;8.10;;;;;;;0.46;59.27;99486.17;1736963;82;21051;-74
2022/11/18 02:57:47;;;;;;;12.63;8.48;;;;;;;0.43;59.32;99483.50;1712274;82;21268;-74
2022/11/18 03:00:16;;;;;;;11.95;8.43;;;;;;;0.45;59.48;99482.75;1759285;80;21038;-74
2022/11/18 03:02:46;;;;;;;11.38;8.53;;;;;;;0.48;59.47;99488.09;1719028;83;20996;-75
2022/11/18 03:05:23;;;;;;;;;;;;;;;0.50;59.50;99487.89;1721820;83;20980;-74
2022/11/18 03:07:55;;;;;;;12.47;8.23;;;;;;;0.52;59.42;99487.14;1719424;83;20140;-75
2022/11/18 03:10:22;;;;;;;13.48;9.00;;;;;;;0.53;59.33;99483.00;1719041;83;21203;-74
2022/11/18 03:13:05;;;;;;;14.00;9.13;;;;;;;0.52;59.27;99478.74;1718579;83;21102;-74
2022/11/18 03:15:55;;;;;;;12.70;8.60;;;;;;;0.52;59.45;99495.82;1718802;83;21083;-74
2022/11/18 03:18:42;;;;;;;12.23;8.40;;;;;;;0.58;59.68;99490.22;1719031;83;21056;-74
2022/11/18 03:21:17;;;;;;;13.50;9.03;;;;;;;0.60;59.58;99486.36;1708909;83;21054;-74
2022/11/18 03:23:53;;;;;;;12.73;8.63;;;;;;;0.57;59.54;99482.85;1718687;82;22177;-73
2022/11/18 03:26:34;;;;;;;10.65;7.87;;;;;;;0.57;59.58;99482.85;1679193;84;21511;-73
2022/11/18 03:29:27;;;;;;;11.43;8.20;;;;;;;0.61;59.60;99477.45;1700463;83;21558;-74
2022/11/18 03:31:59;;;;;;;11.90;8.53;;;;;;;0.67;59.53;99484.98;1726779;83;21067;-77
2022/11/18 03:34:41;;;;;;;11.63;8.18;;;;;;;0.73;59.42;99488.56;1727285;83;21018;-75
2022/11/18 03:37:10;;;;;;;13.93;9.00;;;;;;;0.75;59.35;99490.44;1726851;82;21153;-73
2022/11/18 03:39:42;;;;;;;12.33;8.58;;;;;;;0.75;59.34;99494.39;1726245;83;21013;-73
2022/11/18 03:42:17;;;;;;;10.85;7.87;;;;;;;0.72;59.01;99498.77;1726953;83;21034;-73
2022/11/18 03:44:51;;;;;;;12.78;8.58;;;;;;;0.65;58.89;99503.58;1727292;82;21012;-73
2022/11/18 03:47:28;;;;;;;13.88;8.38;;;;;;;0.60;58.97;99504.75;1725885;82;21037;-73
2022/11/18 03:50:19;;;;;;;12.15;8.60;;;;;;;0.60;59.02;99504.75;1726959;83;21286;-73
2022/11/18 03:52:47;;;;;;;10.93;7.67;;;;;;;0.57;58.95;99503.07;1711562;83;21005;-74
2022/11/18 03:55:21;;;;;;;12.63;8.73;;;;;;;0.58;59.09;99498.89;1721722;83;21154;-73
2022/11/18 03:57:56;;;;;;;12.58;8.15;;;;;;;0.61;59.12;99506.34;1721742;83;21083;-73
2022/11/18 04:00:22;;;;;;;10.72;7.65;;;;;;;0.63;59.09;99508.27;1726853;83;21542;-74
2022/11/18 04:02:49;;;;;;;12.00;8.35;;;;;;;0.64;59.07;99515.11;1727162;82;21108;-74
2022/11/18 04:05:16;;;;;;;11.03;7.67;;;;;;;0.71;59.03;99505.84;1726558;83;21205;-73
2022/11/18 04:07:51;;;;;;;10.78;7.55;;;;;;;0.66;59.27;99505.72;1726871;83;20999;-73
2022/11/18 04:10:40;;;;;;;11.63;7.90;;;;;;;0.67;59.11;99509.42;1726665;82;21703;-73
2022/11/18 04:13:29;;;;;;;11.22;7.80;;;;;;;0.66;59.06;99512.28;1727065;83;20973;-73
2022/11/18 04:15:57;;;;;;;11.12;7.53;;;;;;;0.63;58.87;99520.60;1726611;82;21229;-72
2022/11/18 04:18:23;;;;;;;11.43;7.90;;;;;;;0.63;58.97;99514.83;1726871;82;20949;-73
2022/11/18 04:20:50;;;;;;;11.38;7.55;;;;;;;0.64;58.97;99515.11;1726630;83;20999;-73
2022/11/18 04:23:18;;;;;;;12.25;8.20;;;;;;;0.68;59.08;99521.53;1727056;83;21131;-73
2022/11/18 04:25:44;;;;;;;11.22;8.10;;;;;;;0.74;59.05;99519.07;1726765;83;21095;-73
2022/11/18 04:28:11;;;;;;;10.68;7.22;;;;;;;0.76;59.08;99519.16;1726805;83;21179;-73
2022/11/18 04:30:38;;;;;;;12.47;8.60;;;;;;;0.78;59.01;99521.55;1726533;83;21032;-73
2022/11/18 04:33:07;;;;;;;11.08;7.87;;;;;;;0.77;59.05;99526.52;1726642;82;21012;-73
2022/11/18 04:35:33;;;;;;;10.75;8.15;;;;;;;0.81;59.08;99519.80;1726665;83;21031;-73
2022/11/18 04:38:00;;;;;;;13.20;8.43;;;;;;;0.84;59.09;99527.25;1727043;83;21092;-73
2022/11/18 04:40:27;;;;;;;13.53;8.58;;;;;;;0.87;59.06;99518.94;1726788;82;21910;-75
2022/11/18 04:42:53;;;;;;;12.58;7.95;;;;;;;0.91;59.10;99520.89;1726302;83;20964;-75
2022/11/18 04:45:20;;;;;;;12.70;8.20;;;;;;;0.94;59.13;99524.40;1726818;83;21004;-75
2022/11/18 04:47:47;;;;;;;8.75;6.83;;;;;;;0.96;59.09;99526.03;1727015;83;21480;-75
2022/11/18 04:50:15;;;;;;;10.58;7.20;;;;;;;0.99;59.05;99527.70;1726615;82;21042;-75
2022/11/18 04:52:42;;;;;;;12.20;8.28;;;;;;;0.99;58.88;99526.39;1727037;83;21142;-75
2022/11/18 04:55:09;;;;;;;11.68;7.87;;;;;;;0.99;58.99;99530.82;1726857;83;21617;-75
2022/11/18 04:57:35;;;;;;;11.20;8.05;;;;;;;1.00;59.04;99529.82;1726798;83;21123;-75
2022/11/18 05:00:06;;;;;;;11.28;8.20;;;;;;;1.03;59.03;99538.07;1726616;81;21487;-75
2022/11/18 05:02:33;;;;;;;12.73;8.70;;;;;;;1.08;58.98;99540.03;1726964;83;20976;-75
2022/11/18 05:04:59;;;;;;;12.18;8.63;;;;;;;1.12;59.02;99543.84;1727208;83;21140;-75
2022/11/18 05:07:25;;;;;;;12.98;8.15;;;;;;;1.20;59.10;99551.95;1726802;83;21068;-75
2022/11/18 05:09:52;;;;;;;12.60;8.60;;;;;;;1.21;59.17;99554.86;1726721;83;20957;-74
2022/11/18 05:15:07;;;;;;;11.25;7.62;;;;;;;1.15;59.29;99552.10;1726823;83;21660;-74
2022/11/18 05:17:34;;;;;;;11.25;8.23;;;;;;;1.24;59.14;99551.79;1726210;83;21804;-75
2022/11/18 05:20:03;;;;;;;11.00;8.10;;;;;;;1.23;58.87;99549.68;1726880;83;20992;-73
2022/11/18 05:22:29;;;;;;;11.12;8.25;;;;;;;1.27;58.68;99551.35;1726987;83;20964;-73
2022/11/18 05:24:56;;;;;;;12.78;8.65;;;;;;;1.21;58.69;99552.23;1726813;83;21052;-75
2022/11/18 05:27:23;;;;;;;10.90;7.80;;;;;;;1.17;58.75;99555.30;1726754;83;21055;-75
2022/11/18 05:29:50;;;;;;;12.20;8.35;;;;;;;1.21;58.76;99563.55;1726751;83;21335;-75
2022/11/18 05:32:17;;;;;;;10.82;7.97;;;;;;;1.22;58.54;99570.44;1726656;83;21000;-75
2022/11/18 05:34:45;;;;;;;13.60;8.40;;;;;;;1.19;58.48;99572.70;1726977;83;20980;-75
2022/11/18 05:37:12;;;;;;;12.88;8.55;;;;;;;1.22;58.60;99580.13;1725731;83;20984;-75
2022/11/18 05:39:38;;;;;;;14.70;8.90;;;;;;;1.29;58.54;99582.20;1727005;83;21020;-75
2022/11/18 05:44:50;;;;;;;16.52;9.85;;;;;;;1.34;58.26;99586.27;1726761;83;20944;-74
2022/11/18 05:47:18;;;;;;;14.70;9.65;;;;;;;1.36;58.20;99602.14;1726773;83;21048;-73
2022/11/18 05:49:44;;;;;;;14.87;9.10;;;;;;;1.36;58.15;99595.56;1726912;83;21035;-73
2022/11/18 05:52:11;;;;;;;13.35;9.08;;;;;;;1.36;58.13;99595.56;1726633;83;21545;-73
2022/11/18 05:54:41;;;;;;;13.90;9.83;;;;;;;1.32;58.15;99594.40;1726229;83;21529;-74
2022/11/18 05:57:07;;;;;;;10.53;7.55;;;;;;;1.36;58.26;99596.08;1726050;81;21578;-74
2022/11/18 05:59:34;;;;;;;11.43;8.00;;;;;;;1.36;58.17;99593.45;1722281;81;21004;-73
2022/11/18 06:02:07;;;;;;;11.12;7.92;;;;;;;1.34;58.03;99596.28;1744825;81;21047;-73
2022/11/18 06:04:42;;;;;;;12.30;8.65;;;;;;;1.38;58.05;99589.58;1744598;82;20963;-74
2022/11/18 06:07:17;;;;;;;10.93;7.80;;;;;;;1.28;58.22;99593.72;1718667;83;21255;-74
2022/11/18 06:09:48;;;;;;;12.15;7.95;;;;;;;1.25;58.34;99600.25;1718633;83;20953;-75
2022/11/18 06:12:20;;;;;;;11.20;7.90;;;;;;;1.23;58.37;99600.17;1698353;83;21008;-74
2022/11/18 06:14:52;;;;;;;11.85;8.28;;;;;;;1.22;58.26;99601.17;1718630;83;21079;-75
2022/11/18 06:17:32;;;;;;;9.60;6.92;;;;;;;1.23;58.28;99605.43;1718675;82;21087;-75
2022/11/18 06:20:01;;;;;;;10.98;7.15;;;;;;;1.22;58.46;99603.31;1718610;82;20977;-75
2022/11/18 06:22:29;;;;;;;11.33;7.85;;;;;;;1.22;58.64;99599.38;1692632;83;21008;-75
2022/11/18 06:24:55;;;;;;;9.93;7.22;;;;;;;1.16;58.83;99599.73;1697998;83;20988;-75
2022/11/18 06:27:22;;;;;;;10.13;6.90;;;;;;;1.18;58.79;99596.86;1706060;83;21083;-75
2022/11/18 06:29:49;;;;;;;9.90;7.08;;;;;;;1.21;58.79;99600.89;1722932;83;21194;-75
2022/11/18 06:32:16;;;;;;;12.00;8.03;;;;;;;1.16;58.75;99601.55;1726737;83;21168;-75
2022/11/18 06:34:42;;;;;;;10.70;7.40;;;;;;;1.12;58.90;99595.94;1704189;83;21502;-74
2022/11/18 06:37:17;;;;;;;9.20;6.67;;;;;;;1.14;58.96;99596.50;1697823;84;21136;-74
2022/11/18 06:39:43;;;;;;;9.95;7.30;;;;;;;1.16;58.85;99592.35;1713411;83;20965;-73
2022/11/18 06:43:37;;;;;;;10.93;7.75;;;;;;;1.16;58.94;99601.04;1721301;83;21013;-73
2022/11/18 06:44:39;;;;;;;11.00;6.58;;;;;;;1.15;58.82;99600.76;1711908;83;21268;-73
2022/11/18 06:47:06;;;;;;;10.60;7.67;;;;;;;1.20;58.74;99597.98;1726865;82;21106;-74
2022/11/18 06:49:32;;;;;;;11.25;7.80;;;;;;;1.20;58.92;99605.35;1716511;82;21000;-75
2022/11/18 06:51:59;;;;;;;11.12;8.00;;;;;;;1.20;59.04;99610.61;1727074;82;21019;-75
2022/11/18 06:54:26;;;;;;;10.55;7.40;;;;;;;1.15;59.20;99609.96;1727059;82;20972;-75
2022/11/18 06:56:53;;;;;;;10.50;7.15;;;;;;;1.17;59.30;99607.90;1726959;83;21236;-75
2022/11/18 06:59:22;;;;;;;12.30;8.55;;;;;;;1.17;59.37;99609.22;1708118;83;21044;-74
2022/11/18 07:01:47;;;;;;;10.18;7.50;;;;;;;1.15;59.42;99617.02;1723618;82;20995;-73
2022/11/18 07:04:14;;;;;;;11.18;8.25;;;;;;;1.17;59.32;99625.00;1726969;83;21131;-74
2022/11/18 07:06:42;;;;;;;11.68;8.68;;;;;;;1.21;59.02;99624.05;1726166;82;20981;-74
2022/11/18 07:09:09;;;;;;;13.20;8.80;;;;;;;1.29;58.65;99628.23;1727114;82;21561;-75
2022/11/18 07:11:39;;;;;;;11.63;8.18;;;;;;;1.31;58.00;99632.75;1727088;82;21056;-75
2022/11/18 07:14:05;;;;;;;13.13;8.93;;;;;;;1.36;57.74;99631.08;1727253;82;21055;-74
2022/11/18 07:16:33;;;;;;;11.30;8.20;;;;;;;1.41;57.47;99633.04;1722516;83;21075;-74
2022/11/18 07:19:00;;;;;;;11.35;8.10;;;;;;;1.54;56.92;99640.78;1726850;83;20996;-74
2022/11/18 07:21:28;;;;;;;13.43;10.68;;;;;;;1.51;57.02;99646.48;1727102;83;21967;-75
2022/11/18 07:23:55;;;;;;;13.45;8.65;;;;;;;1.56;57.04;99645.33;1726931;82;21086;-73
2022/11/18 07:26:22;;;;;;;11.33;8.00;;;;;;;1.61;56.94;99642.02;1725560;83;21486;-74
2022/11/18 07:28:48;;;;;;;12.88;8.70;;;;;;;1.66;56.65;99647.44;1721667;83;20992;-74
2022/11/18 07:31:18;;;;;;;12.40;8.45;;;;;;;1.66;56.49;99646.12;1720291;82;20944;-76
2022/11/18 07:33:45;;;;;;;12.05;8.75;;;;;;;1.70;56.38;99649.13;1724002;83;21907;-74
2022/11/18 07:36:14;;;;;;;11.55;8.30;;;;;;;1.80;56.36;99654.15;1726830;82;21008;-75
2022/11/18 07:38:41;;;;;;;11.95;8.20;;;;;;;1.91;56.45;99656.56;1726967;82;21102;-75
2022/11/18 07:41:18;;;;;;;10.82;8.25;;;;;;;1.98;56.20;99654.65;1726983;82;21609;-75
2022/11/18 07:43:45;;;;;;;12.10;7.85;;;;;;;2.03;55.78;99654.77;1726888;82;21043;-74
2022/11/18 07:46:22;;;;;;;10.72;7.87;;;;;;;2.08;55.44;99656.75;1727100;83;21217;-75
2022/11/18 07:48:52;;;;;;;12.05;7.87;;;;;;;2.11;55.17;99657.11;1725571;83;21024;-74
2022/11/18 07:51:24;;;;;;;10.98;7.92;;;;;;;2.13;54.86;99658.70;1704910;83;21015;-75
2022/11/18 07:53:51;;;;;;;9.85;6.90;;;;;;;2.22;54.90;99662.64;1726830;82;21067;-74
2022/11/18 07:56:20;;;;;;;11.93;7.92;;;;;;;2.19;54.86;99661.77;1704070;83;21511;-75
2022/11/18 07:58:53;;;;;;;11.22;7.60;;;;;;;2.20;54.70;99664.69;1704658;82;21152;-74
2022/11/18 08:01:29;;;;;;;10.48;7.35;;;;;;;2.23;54.69;99669.50;1726499;82;21051;-77
2022/11/18 08:03:59;;;;;;;10.18;7.30;;;;;;;2.34;54.74;99670.08;1727245;83;21521;-76
2022/11/18 08:06:26;;;;;;;9.48;7.50;;;;;;;2.39;54.47;99672.03;1725540;83;20980;-74
2022/11/18 08:08:56;;;;;;;12.95;7.80;;;;;;;2.36;54.08;99671.95;1722502;83;21000;-76
2022/11/18 08:11:23;;;;;;;12.68;8.45;;;;;;;2.34;53.93;99684.57;1698133;84;21541;-76
2022/11/18 08:13:51;;;;;;;11.85;7.62;;;;;;;2.34;53.49;99696.42;1701161;83;21030;-76
2022/11/18 08:16:23;;;;;;;9.98;7.20;;;;;;;2.34;53.60;99685.89;1705775;82;21072;-74
2022/11/18 08:18:51;;;;;;;9.65;7.25;;;;;;;2.37;53.33;99688.08;1727564;82;21554;-76
2022/11/18 08:21:19;;;;;;;12.65;8.70;;;;;;;2.36;53.30;99699.62;1727313;83;21052;-74
2022/11/18 08:23:56;;;;;;;9.83;7.17;;;;;;;2.30;53.48;99703.15;1725966;83;21136;-75
2022/11/18 08:26:26;;;;;;;10.08;7.30;;;;;;;2.33;53.77;99707.98;1727139;83;20996;-75
2022/11/18 08:28:56;;;;;;;10.13;7.47;;;;;;;2.36;54.00;99704.89;1726319;82;20988;-74
2022/11/18 08:31:25;;;;;;;11.00;8.33;;;;;;;2.39;54.09;99704.97;1708108;83;21059;-75
2022/11/18 08:33:58;;;;;;;9.45;7.10;;;;;;;2.44;54.07;99716.98;1727583;82;21011;-74
2022/11/18 08:36:28;;;;;;;11.55;9.00;;;;;;;2.42;53.85;99710.59;1727137;83;21208;-74
2022/11/18 08:38:57;;;;;;;10.38;7.40;;;;;;;2.37;53.81;99721.02;1727261;83;26610;-74
2022/11/18 08:41:35;;;;;;;10.60;7.75;;;;;;;2.42;53.85;99714.55;1726821;82;21419;-75
2022/11/18 08:44:03;;;;;;;11.75;8.28;;;;;;;2.42;53.82;99723.77;1726830;81;21036;-75
2022/11/18 08:46:30;;;;;;;10.70;8.38;;;;;;;2.41;53.91;99726.13;1726933;82;21169;-74
2022/11/18 08:48:59;;;;;;;9.43;7.12;;;;;;;2.42;54.24;99726.41;1724779;82;21043;-75
2022/11/18 08:51:27;;;;;;;10.20;7.28;;;;;;;2.50;54.45;99734.50;1726517;83;20996;-74
2022/11/18 08:53:55;;;;;;;10.63;7.80;;;;;;;2.49;54.55;99731.59;1726787;83;21126;-75
2022/11/18 08:56:23;;;;;;;9.60;7.30;;;;;;;2.49;54.74;99731.59;1707959;83;20992;-74
2022/11/18 08:58:53;;;;;;;12.00;7.08;;;;;;;2.59;54.75;99737.13;1712716;83;21593;-74
2022/11/18 09:01:20;;;;;;;10.00;6.50;;;;;;;2.64;54.75;99729.88;1715474;83;21091;-75
2022/11/18 09:03:47;;;;;;;9.50;6.55;;;;;;;2.71;54.75;99726.63;1706519;83;21430;-74
2022/11/18 09:06:19;;;;;;;8.13;6.12;;;;;;;2.74;54.70;99727.48;1717813;83;21009;-76
2022/11/18 09:08:46;;;;;;;9.90;6.78;;;;;;;2.77;54.62;99723.09;1698442;83;20965;-74
2022/11/18 09:11:20;;;;;;;9.13;6.28;;;;;;;2.77;54.39;99719.93;1718607;83;20952;-76
2022/11/18 09:13:57;;;;;;;8.45;6.05;;;;;;;2.77;54.49;99723.09;1716776;83;21576;-74
2022/11/18 09:16:25;;;;;;;10.38;6.87;;;;;;;2.72;54.55;99721.11;1715557;83;21147;-75
2022/11/18 09:18:54;;;;;;;9.30;7.20;;;;;;;2.64;54.65;99732.51;1717577;83;21059;-76
2022/11/18 09:21:20;;;;;;;8.58;6.55;;;;;;;2.58;54.88;99729.73;1694490;83;21004;-75
2022/11/18 09:23:48;;;;;;;10.10;7.15;;;;;;;2.60;54.93;99732.16;1742116;82;21067;-75
2022/11/18 09:26:18;;;;;;;10.95;7.67;;;;;;;2.62;55.18;99735.88;1717770;82;21244;-76
2022/11/18 09:28:46;;;;;;;11.90;8.10;;;;;;;2.68;55.49;99739.73;1713629;83;21053;-76
2022/11/18 09:31:16;;;;;;;10.63;7.58;;;;;;;2.80;55.54;99735.83;1701311;83;21084;-75
2022/11/18 09:33:45;;;;;;;11.55;7.90;;;;;;;2.99;55.09;99737.33;1714241;83;21055;-74
2022/11/18 09:36:21;;;;;;;10.53;7.65;;;;;;;2.98;55.04;99741.00;1715059;83;21067;-75
2022/11/18 09:38:49;;;;;;;11.10;8.13;;;;;;;2.96;54.91;99739.61;1714834;82;21199;-76
2022/11/18 09:41:45;;;;;;;12.13;8.00;;;;;;;2.97;55.04;99738.09;1695408;83;21062;-74
2022/11/18 09:44:52;;;;;;;9.95;7.25;;;;;;;3.04;55.04;99743.26;1711185;83;20991;-74
2022/11/18 09:47:33;;;;;;;11.68;8.20;;;;;;;3.03;54.93;99736.38;1701568;83;21558;-74
2022/11/18 09:50:05;;;;;;;11.53;8.18;;;;;;;2.98;54.87;99738.36;1715303;83;21661;-73
2022/11/18 09:52:38;;;;;;;12.68;8.68;;;;;;;3.03;54.92;99738.50;1718763;82;21032;-73
2022/11/18 09:55:16;;;;;;;11.03;8.13;;;;;;;3.06;54.95;99739.89;1718541;83;21047;-73
2022/11/18 09:57:53;;;;;;;11.60;8.18;;;;;;;3.20;54.85;99744.43;1714765;82;21056;-74
2022/11/18 10:00:24;;;;;;;11.00;8.55;;;;;;;3.07;54.70;99740.69;1718439;82;20996;-74
2022/11/18 10:03:01;;;;;;;;;;;;;;;2.89;54.81;99737.08;1729830;82;21020;-73
2022/11/18 10:05:32;;;;;;;13.62;9.18;;;;;;;2.76;54.93;99737.28;1726934;82;21112;-73
2022/11/18 10:08:10;;;;;;;14.00;8.68;;;;;;;2.70;55.21;99741.64;1726885;82;21047;-74
2022/11/18 10:10:55;;;;;;;10.82;7.97;;;;;;;2.76;55.28;99738.59;1726975;82;21007;-74
2022/11/18 10:13:35;;;;;;;11.90;8.65;;;;;;;2.73;54.94;99734.60;1661877;83;21644;-73
2022/11/18 10:16:48;;;;;;;11.85;8.73;;;;;;;2.65;54.66;99727.52;1727020;82;21048;-74
2022/11/18 10:19:45;;;;;;;13.00;8.58;;;;;;;2.61;54.76;99734.27;1704542;83;21182;-72
2022/11/18 10:35:45;;;;;;;11.90;8.00;;;;;;;3.10;54.59;99708.05;1841731;77;22745;-74
2022/11/18 10:38:16;;;;;;;9.48;7.58;;;;;;;3.04;54.65;99718.99;1816855;79;20991;-74
2022/11/18 10:41:01;;;;;;;11.95;8.40;;;;;;;3.01;54.85;99722.08;1805415;79;21790;-74
2022/11/18 10:43:54;;;;;;;10.50;7.70;;;;;;;3.04;55.05;99734.83;1785817;79;21136;-74
2022/11/18 10:46:33;;;;;;;11.88;8.20;;;;;;;3.21;55.04;99736.27;1785061;80;20983;-74
2022/11/18 10:49:14;;;;;;;10.28;7.65;;;;;;;3.33;54.82;99732.85;1784234;80;20964;-73
2022/11/18 10:51:47;;;;;;;11.70;7.72;;;;;;;3.43;54.59;99727.28;1784934;80;21014;-73
2022/11/18 10:54:19;;;;;;;9.93;7.65;;;;;;;3.48;54.27;99726.05;1784249;80;21486;-73
2022/11/18 10:57:15;;;;;;;10.25;7.50;;;;;;;3.41;53.94;99716.13;1784693;80;20880;-74
2022/11/18 10:59:54;;;;;;;12.53;7.83;;;;;;;3.30;53.86;99710.35;1784127;80;20963;-74
2022/11/18 11:02:39;;;;;;;10.95;8.05;;;;;;;3.19;54.22;99708.50;1784868;80;21300;-73
2022/11/18 11:05:20;;;;;;;10.28;8.05;;;;;;;3.09;54.40;99707.74;1784152;80;21034;-74
2022/11/18 11:08:01;;;;;;;10.38;7.78;;;;;;;3.05;54.81;99711.36;1785052;80;21106;-73
2022/11/18 11:10:28;;;;;;;10.58;8.00;;;;;;;2.98;54.89;99711.98;1767177;80;20991;-74
2022/11/18 11:13:10;;;;;;;11.68;8.00;;;;;;;2.97;55.11;99726.22;1784428;80;21545;-75
2022/11/18 11:15:43;;;;;;;11.70;7.90;;;;;;;2.99;55.15;99718.06;1807993;79;21101;-74
2022/11/18 11:18:41;;;;;;;11.18;8.13;;;;;;;2.99;55.28;99721.50;1816719;79;21042;-73
2022/11/18 11:21:14;;;;;;;10.18;7.55;;;;;;;3.00;55.36;99727.60;1816576;79;21866;-74
2022/11/18 11:23:41;;;;;;;10.93;8.15;;;;;;;3.00;55.33;99722.33;1816264;79;21038;-74
2022/11/18 11:26:25;;;;;;;11.53;7.85;;;;;;;3.00;55.43;99719.69;1789480;79;21005;-73
2022/11/18 11:29:18;;;;;;;10.45;7.90;;;;;;;2.96;55.79;99736.48;1803589;79;21002;-73
2022/11/18 11:32:17;;;;;;;12.50;8.03;;;;;;;2.90;55.77;99730.80;1804240;79;21462;-73
2022/11/18 11:35:23;;;;;;;12.30;8.48;;;;;;;2.82;56.01;99733.22;1783941;80;21152;-74
2022/11/18 11:37:59;;;;;;;10.58;7.80;;;;;;;2.77;56.24;99730.48;1784046;80;21026;-73
2022/11/18 11:40:38;;;;;;;10.43;7.87;;;;;;;2.75;56.46;99725.94;1784131;80;20993;-74
2022/11/18 11:43:24;;;;;;;11.65;8.78;;;;;;;2.76;56.63;99738.59;1784144;80;21208;-73
2022/11/18 11:46:14;;;;;;;11.03;7.53;;;;;;;2.73;56.85;99753.55;1784117;80;21581;-74
2022/11/18 11:48:53;;;;;;;12.03;8.73;;;;;;;2.87;56.78;99761.58;1784596;79;21265;-75
2022/11/18 11:51:52;;;;;;;12.30;8.75;;;;;;;2.82;56.78;99758.80;1768971;80;20988;-74
2022/11/18 11:54:47;;;;;;;10.30;7.72;;;;;;;2.72;56.86;99769.09;1783525;80;21549;-73
2022/11/18 11:57:31;;;;;;;9.50;7.17;;;;;;;2.71;57.01;99777.52;1783907;80;21015;-74
2022/11/18 12:00:05;;;;;;;10.55;8.25;;;;;;;2.71;57.07;99781.99;1782118;80;21040;-74
2022/11/18 12:02:51;;;;;;;11.43;7.85;;;;;;;2.69;57.15;99784.03;1782716;80;21836;-74
2022/11/18 12:05:38;;;;;;;11.80;7.87;;;;;;;2.63;57.36;99782.30;1784451;79;21003;-75
2022/11/18 12:08:12;;;;;;;10.38;8.33;;;;;;;2.59;57.52;99785.38;1783683;80;21042;-74
2022/11/18 12:11:10;;;;;;;9.43;7.30;;;;;;;2.61;57.66;99797.55;1759018;80;21058;-74
2022/11/18 12:13:54;;;;;;;10.13;7.12;;;;;;;2.67;57.67;99796.66;1783649;80;21003;-73
2022/11/18 12:16:32;;;;;;;11.08;7.83;;;;;;;2.64;57.74;99790.00;1794219;79;22104;-74
2022/11/18 12:19:13;;;;;;;11.75;8.35;;;;;;;2.61;57.80;99793.59;1802398;79;21002;-75
2022/11/18 12:21:47;;;;;;;11.08;8.18;;;;;;;2.55;57.91;99788.17;1783698;80;20943;-73
2022/11/18 12:24:31;;;;;;;;;;;;;;;2.53;58.17;99791.56;1817664;79;20964;-74
2022/11/18 12:27:39;;;;;;;11.93;8.50;;;;;;;2.49;58.30;99796.97;1815879;79;20091;-73
2022/11/18 12:30:11;;;;;;;12.70;9.15;;;;;;;2.49;58.41;99799.60;1815582;79;21946;-73
2022/11/18 12:32:41;;;;;;;12.55;8.33;;;;;;;2.44;58.68;99787.63;1813504;79;21011;-74
2022/11/18 12:35:16;;;;;;;12.33;8.25;;;;;;;2.41;58.83;99778.84;1815216;79;21405;-74
2022/11/18 12:37:55;;;;;;;11.90;8.55;;;;;;;2.41;58.99;99772.77;1816040;79;20999;-74
2022/11/18 12:40:41;;;;;;;12.40;9.73;;;;;;;2.41;59.29;99772.77;1814519;79;21565;-74
2022/11/18 12:43:46;;;;;;;12.13;9.33;;;;;;;2.35;59.44;99779.72;1815181;79;21882;-73